Time;durP1;ratioP1;P1;durP2;ratioP2;P2;SDS_P1;SDS_P2;PMS_P1;PMS_P2;Temp;Humidity;BMP_temperature;BMP_pressure;BME280_temperature;BME280_humidity;BME280_pressure;Samples;Min_cycle;Max_cycle;Signal;HPM_P1;HPM_P2
2021/01/17 00:01:17;;;;;;;27.02;19.13;;;-0.40;98.30;;;;;;5154528;23;20212;-81
2021/01/17 00:03:19;;;;;;;26.92;17.90;;;-0.60;98.30;;;;;;5155046;23;20198;-81
2021/01/17 00:05:22;;;;;;;27.08;19.50;;;-0.60;98.30;;;;;;5154905;23;20216;-82
2021/01/17 00:07:28;;;;;;;26.77;18.70;;;-0.60;98.30;;;;;;5145227;23;20295;-82
2021/01/17 00:09:31;;;;;;;26.98;18.70;;;-0.60;98.30;;;;;;5153173;23;20204;-82
2021/01/17 00:11:33;;;;;;;29.75;20.85;;;-0.60;98.30;;;;;;5154013;23;20291;-81
2021/01/17 00:13:38;;;;;;;25.42;18.60;;;-0.60;98.30;;;;;;5153836;23;20857;-82
2021/01/17 00:15:41;;;;;;;24.70;18.70;;;-0.60;98.30;;;;;;5153993;23;20204;-81
2021/01/17 00:17:44;;;;;;;27.63;19.08;;;-0.70;98.30;;;;;;5152942;23;20206;-81
2021/01/17 00:19:46;;;;;;;23.95;17.83;;;-0.70;98.30;;;;;;5150813;23;20244;-81
2021/01/17 00:21:48;;;;;;;23.90;18.17;;;-0.70;98.30;;;;;;5148164;23;20201;-80
2021/01/17 00:24:15;;;;;;;22.65;17.30;;;-0.60;98.30;;;;;;5149766;23;20217;-84
2021/01/17 00:26:28;;;;;;;;;;;;;;;;;;;;;
2021/01/17 00:29:07;;;;;;;23.25;17.48;;;-0.60;98.30;;;;;;5149946;23;20209;-82
2021/01/17 00:31:09;;;;;;;25.00;18.20;;;-0.70;98.30;;;;;;5150727;23;20229;-82
2021/01/17 00:33:13;;;;;;;22.98;18.38;;;-0.70;98.30;;;;;;5152046;23;20205;-82
2021/01/17 00:35:22;;;;;;;25.23;17.70;;;-0.70;98.30;;;;;;5152104;23;20223;-82
2021/01/17 00:37:25;;;;;;;26.67;18.08;;;-0.70;98.30;;;;;;5143696;23;20259;-80
2021/01/17 00:39:27;;;;;;;26.23;19.33;;;-0.70;98.30;;;;;;5143517;23;20212;-80
2021/01/17 00:41:33;;;;;;;27.67;21.15;;;-0.70;98.30;;;;;;5152085;23;20299;-80
2021/01/17 00:43:35;;;;;;;24.17;19.27;;;-0.50;98.30;;;;;;5151493;23;20646;-81
2021/01/17 00:45:37;;;;;;;24.70;18.10;;;-0.50;98.30;;;;;;5145519;23;20242;-80
2021/01/17 00:50:29;;;;;;;26.77;20.10;;;-0.60;98.30;;;;;;5120914;23;20241;-82
2021/01/17 00:52:31;;;;;;;24.95;17.58;;;-0.70;98.30;;;;;;5159393;23;20261;-80
2021/01/17 00:54:33;;;;;;;24.75;18.05;;;-0.70;98.30;;;;;;5160892;23;20204;-82
2021/01/17 00:56:36;;;;;;;24.65;18.10;;;-0.70;98.30;;;;;;5167875;23;20224;-80
2021/01/17 00:58:38;;;;;;;25.23;19.17;;;-0.70;98.30;;;;;;5168626;23;20262;-82
2021/01/17 01:00:40;;;;;;;27.48;19.55;;;-0.70;98.30;;;;;;5140555;23;20209;-82
2021/01/17 01:02:43;;;;;;;24.40;17.05;;;-0.80;98.30;;;;;;5139255;23;20205;-82
2021/01/17 01:04:45;;;;;;;25.55;18.42;;;-0.80;98.30;;;;;;5139566;23;20287;-83
2021/01/17 01:06:50;;;;;;;24.15;17.85;;;-0.80;98.30;;;;;;5139056;23;20274;-83
2021/01/17 01:08:52;;;;;;;25.40;19.05;;;-0.80;98.30;;;;;;5137911;23;20217;-83
2021/01/17 01:10:54;;;;;;;24.40;18.75;;;-0.90;98.30;;;;;;5138186;23;20206;-83
2021/01/17 01:12:57;;;;;;;24.90;18.48;;;-0.80;98.30;;;;;;5136539;23;20209;-81
2021/01/17 01:14:59;;;;;;;27.20;20.45;;;-0.90;98.30;;;;;;5136445;23;20600;-82
2021/01/17 01:17:03;;;;;;;27.40;19.15;;;-0.80;98.30;;;;;;5128508;23;20201;-81
2021/01/17 01:19:15;;;;;;;26.73;18.52;;;-0.80;98.30;;;;;;5123973;23;20640;-80
2021/01/17 01:23:26;;;;;;;22.85;17.13;;;-0.80;98.30;;;;;;5091942;23;20215;-80
2021/01/17 01:25:29;;;;;;;28.55;18.27;;;-0.80;98.30;;;;;;5093917;23;20674;-80
2021/01/17 01:27:31;;;;;;;27.20;17.95;;;-0.80;98.30;;;;;;5100044;23;20210;-81
2021/01/17 01:29:33;;;;;;;24.00;19.02;;;-0.90;98.30;;;;;;5100882;23;20277;-81
2021/01/17 01:31:37;;;;;;;28.20;20.05;;;-0.90;98.30;;;;;;5097564;23;20199;-80
2021/01/17 01:33:39;;;;;;;22.90;16.63;;;-0.90;98.30;;;;;;5077244;23;20536;-80
2021/01/17 01:35:41;;;;;;;27.10;18.10;;;-0.90;98.30;;;;;;5076962;23;20211;-80
2021/01/17 01:37:43;;;;;;;25.90;17.30;;;-0.90;98.30;;;;;;5076801;23;20206;-80
2021/01/17 01:39:46;;;;;;;26.77;18.48;;;-0.90;98.30;;;;;;5076265;23;20296;-80
2021/01/17 01:41:48;;;;;;;25.83;17.33;;;-0.90;98.30;;;;;;5068398;23;20214;-80
2021/01/17 01:43:50;;;;;;;28.60;19.90;;;-0.90;98.30;;;;;;5066574;23;20238;-80
2021/01/17 01:45:53;;;;;;;22.05;16.42;;;-1.00;98.30;;;;;;5067707;23;20211;-80
2021/01/17 01:47:55;;;;;;;24.70;18.60;;;-1.00;98.30;;;;;;5068262;23;20214;-79
2021/01/17 01:49:58;;;;;;;27.48;18.00;;;-1.00;98.30;;;;;;5076303;23;20281;-80
2021/01/17 01:52:01;;;;;;;26.35;19.52;;;-1.00;98.30;;;;;;5076892;23;20207;-80
2021/01/17 01:54:05;;;;;;;24.70;18.50;;;-0.90;98.30;;;;;;5076952;23;20259;-80
2021/01/17 01:56:07;;;;;;;28.73;18.83;;;-0.80;98.30;;;;;;5068431;23;20210;-80
2021/01/17 01:58:13;;;;;;;22.42;17.70;;;-1.00;98.30;;;;;;5075586;23;20209;-79
2021/01/17 02:00:17;;;;;;;23.70;18.20;;;-1.00;98.30;;;;;;5067258;23;20307;-80
2021/01/17 02:02:20;;;;;;;28.33;19.33;;;-1.10;98.30;;;;;;5076572;23;20214;-80
2021/01/17 02:04:22;;;;;;;24.38;18.35;;;-1.10;98.30;;;;;;5069598;23;20209;-80
2021/01/17 02:06:26;;;;;;;25.55;18.38;;;-1.10;98.30;;;;;;5078230;23;20214;-80
2021/01/17 02:08:46;;;;;;;28.15;18.88;;;-1.10;98.30;;;;;;5078079;23;20609;-80
2021/01/17 02:10:48;;;;;;;24.00;17.38;;;-1.10;98.30;;;;;;5082619;23;20203;-80
2021/01/17 02:12:56;;;;;;;25.30;17.90;;;-1.10;98.30;;;;;;5078574;23;20201;-80
2021/01/17 02:15:05;;;;;;;25.88;18.67;;;-1.10;98.30;;;;;;5068801;23;20206;-80
2021/01/17 02:17:09;;;;;;;25.45;18.27;;;-1.10;98.30;;;;;;5068279;23;20211;-80
2021/01/17 02:19:15;;;;;;;24.25;18.33;;;-1.10;98.30;;;;;;5068271;23;20204;-80
2021/01/17 02:21:17;;;;;;;33.70;22.15;;;-1.10;98.30;;;;;;5076883;23;20294;-80
2021/01/17 02:23:23;;;;;;;27.88;19.75;;;-1.00;98.30;;;;;;5067908;23;20746;-80
2021/01/17 02:25:27;;;;;;;26.95;19.58;;;-1.00;98.30;;;;;;5077396;23;20248;-80
2021/01/17 02:27:30;;;;;;;24.88;19.88;;;-1.10;98.30;;;;;;5076953;23;20670;-81
2021/01/17 02:29:34;;;;;;;25.00;18.48;;;-1.00;98.30;;;;;;5077384;23;20214;-80
2021/01/17 02:31:39;;;;;;;26.05;19.70;;;-1.10;98.30;;;;;;5068917;23;20214;-80
2021/01/17 02:33:43;;;;;;;23.42;18.25;;;-0.90;98.30;;;;;;5067993;23;20333;-80
2021/01/17 02:35:47;;;;;;;25.05;18.95;;;-0.90;98.30;;;;;;5069758;23;20304;-80
2021/01/17 02:37:59;;;;;;;25.40;18.25;;;-0.90;98.30;;;;;;5068600;23;20224;-80
2021/01/17 02:40:05;;;;;;;25.65;19.27;;;-1.00;98.30;;;;;;5076679;23;20202;-81
2021/01/17 02:42:08;;;;;;;26.55;19.35;;;-1.00;98.30;;;;;;5068953;23;20245;-80
2021/01/17 02:44:12;;;;;;;26.88;20.25;;;-1.00;98.30;;;;;;5069319;23;20256;-80
2021/01/17 02:46:14;;;;;;;26.17;19.00;;;-0.90;98.30;;;;;;5069336;23;20209;-80
2021/01/17 02:48:16;;;;;;;26.27;18.33;;;-1.00;98.30;;;;;;5069464;23;20212;-80
2021/01/17 02:50:18;;;;;;;24.52;17.88;;;-1.00;98.30;;;;;;5077308;23;20273;-80
2021/01/17 02:52:28;;;;;;;25.27;18.40;;;-1.00;98.30;;;;;;5077499;23;20210;-80
2021/01/17 02:54:33;;;;;;;24.27;18.45;;;-1.00;98.30;;;;;;5077632;23;20211;-80
2021/01/17 02:56:41;;;;;;;27.38;19.77;;;-0.90;98.30;;;;;;5077265;23;20217;-80
2021/01/17 02:58:48;;;;;;;27.60;19.27;;;-0.80;98.30;;;;;;5077360;23;20291;-80
2021/01/17 03:00:53;;;;;;;26.30;19.17;;;-0.80;98.30;;;;;;5077815;23;20302;-80
2021/01/17 03:02:57;;;;;;;28.88;18.75;;;-0.80;98.30;;;;;;5077912;23;20210;-81
2021/01/17 03:05:02;;;;;;;28.35;19.67;;;-0.80;98.30;;;;;;5077248;23;20202;-80
2021/01/17 03:07:08;;;;;;;27.92;20.10;;;-0.70;98.30;;;;;;5076817;23;20200;-80
2021/01/17 03:09:11;;;;;;;25.38;18.83;;;-0.60;98.30;;;;;;5070022;23;20238;-80
2021/01/17 03:11:13;;;;;;;25.45;18.90;;;-0.70;98.30;;;;;;5078454;23;20202;-80
2021/01/17 03:13:15;;;;;;;24.73;19.10;;;-0.80;98.30;;;;;;5077417;23;20204;-80
2021/01/17 03:15:18;;;;;;;24.88;18.23;;;-0.80;98.30;;;;;;5069471;23;20560;-80
2021/01/17 03:17:20;;;;;;;23.05;18.00;;;-0.90;98.30;;;;;;5078416;23;20209;-80
2021/01/17 03:19:22;;;;;;;25.00;18.75;;;-0.80;98.30;;;;;;5070206;23;20536;-80
2021/01/17 03:21:24;;;;;;;29.58;20.77;;;-0.80;98.30;;;;;;5078614;23;20290;-80
2021/01/17 03:23:27;;;;;;;28.17;19.08;;;-0.80;98.30;;;;;;5054365;23;20209;-80
2021/01/17 03:25:29;;;;;;;28.50;19.60;;;-0.70;98.30;;;;;;5053304;23;20215;-80
2021/01/17 03:27:31;;;;;;;26.15;18.58;;;-0.70;98.30;;;;;;5052691;23;20716;-80
2021/01/17 03:29:33;;;;;;;26.52;19.23;;;-0.80;98.30;;;;;;5046348;23;20539;-80
2021/01/17 03:31:35;;;;;;;30.88;20.83;;;-0.80;98.30;;;;;;5046421;23;20703;-80
2021/01/17 03:33:37;;;;;;;29.65;20.17;;;-0.70;98.30;;;;;;5054073;23;20211;-81
2021/01/17 03:35:39;;;;;;;25.63;18.38;;;-0.60;98.30;;;;;;5046297;23;20287;-80
2021/01/17 03:37:41;;;;;;;26.92;19.30;;;-0.60;98.30;;;;;;5053594;23;20210;-80
2021/01/17 03:39:43;;;;;;;25.80;18.95;;;-0.80;98.30;;;;;;5045980;23;20210;-80
2021/01/17 03:41:45;;;;;;;27.20;20.20;;;-0.70;98.30;;;;;;5054742;23;20261;-80
2021/01/17 03:43:48;;;;;;;26.73;19.88;;;-0.70;98.30;;;;;;5053846;23;20289;-80
2021/01/17 03:45:50;;;;;;;27.77;21.05;;;-0.60;98.30;;;;;;5046143;23;20270;-81
2021/01/17 03:47:53;;;;;;;30.48;21.58;;;-0.70;98.30;;;;;;5046214;23;20211;-81
2021/01/17 03:49:55;;;;;;;26.38;19.15;;;-0.70;98.30;;;;;;5054220;23;20215;-81
2021/01/17 03:51:57;;;;;;;93.53;54.15;;;-0.70;98.30;;;;;;5054635;23;20209;-81
2021/01/17 03:53:59;;;;;;;47.15;29.25;;;-0.60;98.30;;;;;;5046472;23;20590;-80
2021/01/17 03:56:01;;;;;;;32.00;22.67;;;-0.70;98.30;;;;;;5053798;23;20683;-80
2021/01/17 03:58:03;;;;;;;31.88;20.73;;;-0.70;98.30;;;;;;5053755;23;20243;-80
2021/01/17 04:00:06;;;;;;;26.75;19.92;;;-0.70;98.30;;;;;;5046273;23;20319;-80
2021/01/17 04:02:08;;;;;;;28.00;20.02;;;-0.70;98.30;;;;;;5045023;23;20222;-81
2021/01/17 04:04:11;;;;;;;30.52;22.23;;;-0.70;98.30;;;;;;5043776;23;20212;-81
2021/01/17 04:06:13;;;;;;;31.48;22.38;;;-0.60;98.30;;;;;;5052456;23;20205;-81
2021/01/17 04:08:15;;;;;;;33.30;21.85;;;-0.60;98.30;;;;;;5044133;23;20215;-81
2021/01/17 04:10:17;;;;;;;28.17;20.65;;;-0.70;98.30;;;;;;5051617;23;20600;-80
2021/01/17 04:12:19;;;;;;;26.25;20.02;;;-0.70;98.30;;;;;;5043646;23;20298;-81
2021/01/17 04:14:21;;;;;;;31.90;20.92;;;-0.70;98.30;;;;;;5043203;23;20208;-80
2021/01/17 04:16:23;;;;;;;32.58;21.52;;;-0.60;98.30;;;;;;5050726;23;20203;-81
2021/01/17 04:18:25;;;;;;;28.23;21.80;;;-0.60;98.30;;;;;;5051631;23;20265;-80
2021/01/17 04:20:28;;;;;;;29.02;20.10;;;-0.60;98.30;;;;;;5042618;23;20243;-81
2021/01/17 04:22:30;;;;;;;27.08;21.27;;;-0.60;98.30;;;;;;5056923;23;20222;-81
2021/01/17 04:24:31;;;;;;;29.95;21.42;;;-0.60;98.30;;;;;;5069715;23;20211;-80
2021/01/17 04:26:33;;;;;;;29.50;21.58;;;-0.60;98.30;;;;;;5078046;23;20202;-80
2021/01/17 04:28:35;;;;;;;29.15;21.70;;;-0.60;98.30;;;;;;5077885;23;20212;-80
2021/01/17 04:30:37;;;;;;;35.13;22.08;;;-0.60;98.30;;;;;;5069591;23;20281;-80
2021/01/17 04:32:39;;;;;;;33.22;22.25;;;-0.60;98.30;;;;;;5069555;23;20291;-81
2021/01/17 04:34:42;;;;;;;35.55;22.80;;;-0.60;98.30;;;;;;5078225;23;20209;-81
2021/01/17 04:36:49;;;;;;;29.42;22.30;;;-0.60;98.30;;;;;;5069539;23;20555;-80
2021/01/17 04:38:51;;;;;;;27.65;20.35;;;-0.60;98.30;;;;;;5077026;23;20203;-80
2021/01/17 04:40:53;;;;;;;32.15;22.80;;;-0.60;98.30;;;;;;5068679;23;20799;-80
2021/01/17 04:43:06;;;;;;;28.92;21.65;;;-0.60;98.30;;;;;;5068695;23;20834;-80
2021/01/17 04:45:09;;;;;;;28.40;21.15;;;-0.60;98.30;;;;;;5076516;23;20288;-80
2021/01/17 04:47:14;;;;;;;29.20;22.48;;;-0.60;98.30;;;;;;5076942;23;20213;-80
2021/01/17 04:49:19;;;;;;;29.83;21.33;;;-0.70;98.30;;;;;;5077178;23;20222;-80
2021/01/17 04:51:22;;;;;;;29.17;21.23;;;-0.60;98.30;;;;;;5068923;23;20264;-80
2021/01/17 04:53:27;;;;;;;31.90;22.90;;;-0.70;98.30;;;;;;5069404;23;20206;-80
2021/01/17 04:55:29;;;;;;;32.65;23.42;;;-0.70;98.30;;;;;;5069512;23;20540;-80
2021/01/17 04:57:42;;;;;;;29.05;21.73;;;-0.70;98.30;;;;;;5077874;23;20581;-80
2021/01/17 04:59:46;;;;;;;32.40;22.23;;;-0.70;98.30;;;;;;5077543;23;20663;-80
2021/01/17 05:02:00;;;;;;;29.55;22.13;;;-0.70;98.30;;;;;;5077478;23;20220;-80
2021/01/17 05:04:18;;;;;;;31.27;21.73;;;-0.70;98.30;;;;;;5077263;23;20229;-80
2021/01/17 05:06:26;;;;;;;33.28;22.08;;;-0.60;98.30;;;;;;5077720;23;20724;-80
2021/01/17 05:08:32;;;;;;;30.67;21.75;;;-0.60;98.30;;;;;;5077740;23;20531;-80
2021/01/17 05:10:36;;;;;;;30.33;21.88;;;-0.70;98.30;;;;;;5068913;23;20229;-80
2021/01/17 05:12:40;;;;;;;30.60;22.23;;;-0.70;98.30;;;;;;5077262;23;20212;-81
2021/01/17 05:14:43;;;;;;;33.53;22.13;;;-0.60;98.30;;;;;;5077330;23;20527;-80
2021/01/17 05:16:47;;;;;;;33.47;23.10;;;-0.60;98.30;;;;;;5076871;23;20257;-80
2021/01/17 05:18:49;;;;;;;32.53;23.55;;;-0.60;98.30;;;;;;5068464;23;20206;-80
2021/01/17 05:20:58;;;;;;;35.13;23.88;;;-0.70;98.30;;;;;;5077512;23;20524;-80
2021/01/17 05:23:00;;;;;;;30.65;22.17;;;-0.60;98.30;;;;;;5069356;23;20218;-80
2021/01/17 05:25:05;;;;;;;32.58;22.13;;;-0.70;98.30;;;;;;5079247;23;20738;-80
2021/01/17 05:27:07;;;;;;;34.65;23.80;;;-0.70;98.30;;;;;;5071612;23;20208;-80
2021/01/17 05:29:10;;;;;;;31.25;22.70;;;-0.70;98.30;;;;;;5079321;23;20206;-80
2021/01/17 05:31:11;;;;;;;30.30;21.42;;;-0.70;98.30;;;;;;5078171;23;20196;-80
2021/01/17 05:33:19;;;;;;;31.55;22.35;;;-0.70;98.30;;;;;;5077581;23;20203;-80
2021/01/17 05:35:24;;;;;;;32.40;22.77;;;-0.60;98.30;;;;;;5076756;23;20205;-80
2021/01/17 05:37:26;;;;;;;31.50;22.67;;;-0.60;98.30;;;;;;5077359;23;20610;-80
2021/01/17 05:39:28;;;;;;;29.48;22.23;;;-0.70;98.30;;;;;;5069881;23;20218;-81
2021/01/17 05:41:30;;;;;;;33.70;23.00;;;-0.70;98.30;;;;;;5078117;23;20242;-81
2021/01/17 05:43:32;;;;;;;34.35;23.42;;;-0.60;98.30;;;;;;5075501;23;20206;-81
2021/01/17 05:45:34;;;;;;;34.28;25.27;;;-0.70;98.30;;;;;;5075415;23;20206;-80
2021/01/17 05:47:36;;;;;;;33.72;24.30;;;-0.50;98.30;;;;;;5067074;23;20206;-80
2021/01/17 05:49:38;;;;;;;36.65;23.33;;;-0.60;98.30;;;;;;5074152;23;20207;-80
2021/01/17 05:51:40;;;;;;;36.22;26.75;;;-0.70;98.30;;;;;;5074690;23;20234;-80
2021/01/17 05:53:43;;;;;;;30.15;22.73;;;-0.70;98.30;;;;;;5067432;23;20226;-80
2021/01/17 05:55:45;;;;;;;31.67;22.00;;;-0.80;98.30;;;;;;5075469;23;20202;-80
2021/01/17 05:57:48;;;;;;;34.75;24.60;;;-0.80;98.30;;;;;;5067111;23;20210;-80
2021/01/17 05:59:50;;;;;;;33.25;23.45;;;-0.90;98.30;;;;;;5074758;23;20210;-80
2021/01/17 06:01:52;;;;;;;33.25;23.17;;;-0.90;98.30;;;;;;5067195;23;20222;-80
2021/01/17 06:03:55;;;;;;;33.40;23.48;;;-0.80;98.30;;;;;;5066986;23;20205;-80
2021/01/17 06:06:02;;;;;;;33.40;23.60;;;-0.90;98.30;;;;;;5074906;23;20200;-80
2021/01/17 06:08:05;;;;;;;33.47;24.08;;;-0.90;98.30;;;;;;5075614;23;20237;-80
2021/01/17 06:10:08;;;;;;;33.63;23.45;;;-1.00;98.30;;;;;;5067883;23;20211;-80
2021/01/17 06:12:10;;;;;;;30.88;23.42;;;-1.00;98.30;;;;;;5068204;23;20682;-80
2021/01/17 06:14:24;;;;;;;32.55;22.90;;;-1.10;98.30;;;;;;5076932;23;20241;-80
2021/01/17 06:16:31;;;;;;;33.08;23.58;;;-1.10;98.30;;;;;;5068224;23;20213;-80
2021/01/17 06:18:34;;;;;;;31.42;23.38;;;-1.00;98.30;;;;;;5068612;23;20258;-80
2021/01/17 06:20:37;;;;;;;35.40;23.88;;;-1.00;98.30;;;;;;5068344;23;20219;-80
2021/01/17 06:22:40;;;;;;;30.83;21.65;;;-1.00;98.30;;;;;;5079647;23;20212;-80
2021/01/17 06:24:43;;;;;;;31.58;21.67;;;-1.00;98.30;;;;;;5087121;23;20213;-80
2021/01/17 06:26:53;;;;;;;32.90;22.80;;;-1.10;98.30;;;;;;5086410;23;20273;-80
2021/01/17 06:28:55;;;;;;;36.22;23.42;;;-1.10;98.30;;;;;;5084044;23;20200;-80
2021/01/17 06:30:59;;;;;;;33.63;22.63;;;-1.10;98.30;;;;;;5078211;23;20270;-80
2021/01/17 06:33:03;;;;;;;31.60;21.55;;;-1.10;98.30;;;;;;5077774;23;20205;-80
2021/01/17 06:35:06;;;;;;;33.72;23.38;;;-1.10;98.30;;;;;;5078447;23;20589;-80
2021/01/17 06:37:11;;;;;;;32.47;22.77;;;-1.10;98.30;;;;;;5077886;23;20231;-81
2021/01/17 06:39:19;;;;;;;29.75;20.85;;;-1.20;98.30;;;;;;5068846;23;20687;-80
2021/01/17 06:41:34;;;;;;;33.63;22.40;;;-1.20;98.30;;;;;;5068898;23;20291;-80
2021/01/17 06:43:40;;;;;;;29.52;22.08;;;-1.30;98.30;;;;;;5069916;23;20586;-81
2021/01/17 06:45:43;;;;;;;32.53;22.95;;;-1.30;98.30;;;;;;5069495;23;20534;-80
2021/01/17 06:47:57;;;;;;;37.00;23.73;;;-1.30;98.30;;;;;;5069608;23;20216;-80
2021/01/17 06:49:59;;;;;;;38.35;25.48;;;-1.40;98.30;;;;;;5079784;23;20212;-80
2021/01/17 06:52:04;;;;;;;33.45;23.13;;;-1.30;98.30;;;;;;5069799;23;20281;-80
2021/01/17 06:54:06;;;;;;;30.33;21.83;;;-1.30;98.30;;;;;;5078777;23;20232;-80
2021/01/17 06:56:14;;;;;;;29.98;23.08;;;-1.30;98.30;;;;;;5070336;23;20606;-80
2021/01/17 06:58:17;;;;;;;35.50;23.27;;;-1.40;98.30;;;;;;5069304;23;20213;-80
2021/01/17 07:00:20;;;;;;;34.22;23.25;;;-1.30;98.30;;;;;;5070026;23;20210;-80
2021/01/17 07:02:38;;;;;;;34.05;23.23;;;-1.30;98.30;;;;;;5077191;23;20207;-80
2021/01/17 07:04:44;;;;;;;34.03;23.17;;;-1.30;98.30;;;;;;5077511;23;20204;-80
2021/01/17 07:07:13;;;;;;;31.30;22.77;;;-1.40;98.30;;;;;;5070537;23;20216;-80
2021/01/17 07:09:25;;;;;;;32.00;22.85;;;-1.50;98.30;;;;;;5070726;23;20215;-80
2021/01/17 07:11:44;;;;;;;35.10;23.40;;;-1.40;98.30;;;;;;5078888;23;20196;-80
2021/01/17 07:13:49;;;;;;;31.83;23.63;;;-1.50;98.30;;;;;;5077452;23;20268;-80
2021/01/17 07:15:53;;;;;;;32.65;23.52;;;-1.40;98.30;;;;;;5070086;23;20284;-80
2021/01/17 07:18:01;;;;;;;35.13;24.20;;;-1.40;98.30;;;;;;5070380;23;20256;-80
2021/01/17 07:20:07;;;;;;;36.70;25.02;;;-1.40;98.30;;;;;;5077047;23;20200;-80
2021/01/17 07:22:09;;;;;;;34.80;24.13;;;-1.50;98.30;;;;;;5075835;23;20204;-80
2021/01/17 07:24:11;;;;;;;35.05;24.67;;;-1.50;98.30;;;;;;5068501;23;20213;-80
2021/01/17 07:26:16;;;;;;;34.72;24.10;;;-1.40;98.30;;;;;;5068903;23;20211;-80
2021/01/17 07:28:19;;;;;;;33.72;22.92;;;-1.40;98.30;;;;;;5077053;23;20299;-81
2021/01/17 07:30:32;;;;;;;34.38;23.35;;;-1.40;98.30;;;;;;5068454;23;20209;-80
2021/01/17 07:32:36;;;;;;;37.45;23.10;;;-1.40;98.30;;;;;;5076888;23;20699;-80
2021/01/17 07:34:52;;;;;;;40.17;24.35;;;-1.40;98.30;;;;;;5077223;23;20241;-80
2021/01/17 07:37:01;;;;;;;35.22;25.02;;;-1.40;98.30;;;;;;5069034;23;20215;-80
2021/01/17 07:39:03;;;;;;;35.65;24.10;;;-1.50;98.30;;;;;;5068785;23;20209;-80
2021/01/17 07:41:07;;;;;;;31.00;22.45;;;-1.50;98.30;;;;;;5077248;23;20205;-80
2021/01/17 07:43:09;;;;;;;34.80;24.85;;;-1.50;98.30;;;;;;5077205;23;20275;-80
2021/01/17 07:45:19;;;;;;;35.72;24.90;;;-1.50;98.30;;;;;;5077598;23;20207;-80
2021/01/17 07:47:28;;;;;;;34.60;25.20;;;-1.40;98.30;;;;;;5068371;23;20239;-80
2021/01/17 07:49:31;;;;;;;33.58;24.10;;;-1.50;98.30;;;;;;5068430;23;20208;-82
2021/01/17 07:51:33;;;;;;;32.70;22.25;;;-1.50;98.30;;;;;;5076823;23;20244;-80
2021/01/17 07:53:46;;;;;;;36.25;22.45;;;-1.40;98.30;;;;;;5074987;23;20307;-80
2021/01/17 07:55:50;;;;;;;32.22;22.83;;;-1.40;98.30;;;;;;5075265;23;20521;-80
2021/01/17 07:57:52;;;;;;;36.95;24.30;;;-1.50;98.30;;;;;;5068013;23;20246;-80
2021/01/17 07:59:55;;;;;;;29.55;21.17;;;-1.40;98.30;;;;;;5077145;23;20294;-80
2021/01/17 08:01:57;;;;;;;35.33;24.52;;;-1.40;98.30;;;;;;5068893;23;20214;-80
2021/01/17 08:04:27;;;;;;;35.30;24.50;;;-1.40;98.30;;;;;;5077570;23;20205;-80
2021/01/17 08:06:48;;;;;;;35.22;24.38;;;-1.50;98.30;;;;;;5068841;23;20213;-80
2021/01/17 08:08:50;;;;;;;35.20;23.00;;;-1.40;98.30;;;;;;5070785;23;20288;-81
2021/01/17 08:10:52;;;;;;;36.13;25.52;;;-1.40;98.30;;;;;;5070791;23;20249;-80
2021/01/17 08:12:54;;;;;;;37.85;25.10;;;-1.40;98.30;;;;;;5077668;23;20206;-80
2021/01/17 08:15:29;;;;;;;37.10;25.02;;;-1.40;98.30;;;;;;5077493;23;20295;-81
2021/01/17 08:17:36;;;;;;;42.10;26.17;;;-1.30;98.30;;;;;;5077691;23;20714;-80
2021/01/17 08:19:44;;;;;;;43.90;28.25;;;-1.30;98.30;;;;;;5078786;23;20543;-81
2021/01/17 08:21:46;;;;;;;39.38;26.42;;;-1.20;98.30;;;;;;5069992;23;20211;-80
2021/01/17 08:24:23;;;;;;;38.92;25.40;;;-1.20;98.30;;;;;;5068012;23;20212;-80
2021/01/17 08:26:57;;;;;;;37.63;23.60;;;-1.20;98.30;;;;;;5076658;23;20717;-80
2021/01/17 08:29:02;;;;;;;36.42;22.92;;;-1.30;98.30;;;;;;5076035;23;20295;-80
2021/01/17 08:31:33;;;;;;;30.85;23.45;;;-1.20;98.30;;;;;;5069122;23;20237;-81
2021/01/17 08:33:37;;;;;;;32.25;24.15;;;-1.20;98.30;;;;;;5077326;23;20199;-80
2021/01/17 08:35:39;;;;;;;40.70;26.63;;;-1.20;98.30;;;;;;5077094;23;20205;-82
2021/01/17 08:37:41;;;;;;;34.22;24.10;;;-1.20;98.30;;;;;;5077120;23;20241;-81
2021/01/17 08:39:47;;;;;;;35.22;22.83;;;-1.30;98.30;;;;;;5076278;23;20213;-80
2021/01/17 08:41:48;;;;;;;34.92;23.17;;;-1.10;98.30;;;;;;5076588;23;20293;-82
2021/01/17 08:43:52;;;;;;;34.42;22.95;;;-1.00;98.30;;;;;;5076365;23;20717;-80
2021/01/17 08:45:54;;;;;;;36.28;24.38;;;-0.90;98.30;;;;;;5079212;23;20205;-81
2021/01/17 08:47:58;;;;;;;33.60;22.90;;;-0.90;98.30;;;;;;5078039;23;20237;-80
2021/01/17 08:50:00;;;;;;;32.03;22.45;;;-0.80;98.30;;;;;;5077717;23;20277;-81
2021/01/17 08:52:02;;;;;;;30.67;21.48;;;-0.70;98.30;;;;;;5076868;23;20288;-80
2021/01/17 08:54:29;;;;;;;34.08;23.35;;;-0.90;98.30;;;;;;5076859;23;20295;-81
2021/01/17 08:56:35;;;;;;;32.78;22.92;;;-0.90;98.30;;;;;;5070353;23;20209;-81
2021/01/17 08:58:45;;;;;;;29.35;21.23;;;-0.80;98.30;;;;;;5078307;23;20218;-80
2021/01/17 09:01:04;;;;;;;31.08;23.67;;;-0.80;98.30;;;;;;5068963;23;20204;-81
2021/01/17 09:03:24;;;;;;;31.73;22.92;;;-0.80;98.30;;;;;;5068186;23;20242;-80
2021/01/17 09:05:33;;;;;;;33.83;23.38;;;-0.80;98.30;;;;;;5076407;23;20207;-80
2021/01/17 09:07:37;;;;;;;32.33;23.45;;;-0.70;98.30;;;;;;5077169;23;20848;-81
2021/01/17 09:09:39;;;;;;;32.63;24.20;;;-0.70;98.30;;;;;;5079782;23;20242;-81
2021/01/17 09:11:42;;;;;;;35.28;24.33;;;-0.60;98.30;;;;;;5078668;23;20210;-80
2021/01/17 09:13:47;;;;;;;34.50;22.98;;;-0.70;98.30;;;;;;5078454;23;20270;-80
2021/01/17 09:15:57;;;;;;;34.70;24.65;;;-0.70;98.30;;;;;;5077388;23;20243;-80
2021/01/17 09:18:01;;;;;;;33.53;22.23;;;-0.70;98.30;;;;;;5075878;23;20289;-80
2021/01/17 09:20:14;;;;;;;33.65;24.67;;;-0.50;98.30;;;;;;5074942;23;20677;-80
2021/01/17 09:22:17;;;;;;;31.88;22.75;;;-0.50;98.30;;;;;;5074756;23;20212;-81
2021/01/17 09:24:21;;;;;;;30.08;20.98;;;-0.50;98.30;;;;;;5074750;23;20750;-80
2021/01/17 09:26:23;;;;;;;29.63;21.73;;;-0.60;98.30;;;;;;5075496;23;20259;-80
2021/01/17 09:28:27;;;;;;;40.63;23.50;;;-0.60;98.30;;;;;;5076208;23;20521;-80
2021/01/17 09:30:29;;;;;;;36.70;24.38;;;-0.60;98.30;;;;;;5077402;23;20673;-80
2021/01/17 09:32:32;;;;;;;34.10;21.85;;;-0.50;98.30;;;;;;5068406;23;20202;-80
2021/01/17 09:34:38;;;;;;;31.98;21.15;;;-0.40;98.30;;;;;;5068339;23;20727;-81
2021/01/17 09:36:41;;;;;;;29.90;23.15;;;-0.50;98.30;;;;;;5076923;23;20259;-80
2021/01/17 09:38:43;;;;;;;35.10;24.40;;;-0.60;98.30;;;;;;5069816;23;20675;-81
2021/01/17 09:40:48;;;;;;;31.42;21.92;;;-0.50;98.30;;;;;;5068944;23;20274;-81
2021/01/17 09:42:55;;;;;;;39.38;24.33;;;-0.40;98.30;;;;;;5067416;23;20231;-81
2021/01/17 09:44:59;;;;;;;36.00;23.65;;;-0.30;98.30;;;;;;5076777;23;20211;-80
2021/01/17 09:47:01;;;;;;;36.78;23.90;;;-0.30;98.30;;;;;;5076712;23;20229;-80
2021/01/17 09:49:04;;;;;;;36.22;23.35;;;-0.20;98.30;;;;;;5076675;23;20215;-81
2021/01/17 09:51:07;;;;;;;34.38;24.35;;;-0.30;98.30;;;;;;5068915;23;20327;-80
2021/01/17 09:53:10;;;;;;;28.75;21.55;;;-0.50;98.30;;;;;;5075140;23;20209;-80
2021/01/17 09:55:12;;;;;;;35.13;22.38;;;-0.40;98.30;;;;;;5076254;23;20493;-81
2021/01/17 09:57:19;;;;;;;32.85;22.08;;;-0.40;98.30;;;;;;5074838;23;20210;-81
2021/01/17 09:59:23;;;;;;;32.65;23.70;;;-0.40;98.30;;;;;;5066444;23;20215;-81
2021/01/17 10:01:25;;;;;;;30.90;21.65;;;-0.20;98.30;;;;;;5074834;23;20958;-81
2021/01/17 10:03:28;;;;;;;31.80;21.15;;;-0.20;98.30;;;;;;5073791;23;20718;-74
2021/01/17 10:05:31;;;;;;;32.50;23.23;;;-0.10;98.30;;;;;;5067508;23;20210;-81
2021/01/17 10:07:33;;;;;;;28.13;20.95;;;0.10;98.30;;;;;;5075581;23;20230;-81
2021/01/17 10:09:34;;;;;;;28.00;20.92;;;0.00;98.30;;;;;;5075394;23;20200;-81
2021/01/17 10:11:37;;;;;;;29.73;21.00;;;0.00;98.30;;;;;;5075632;23;20203;-82
2021/01/17 10:13:47;;;;;;;31.30;21.52;;;-0.10;98.30;;;;;;5074476;23;20237;-81
2021/01/17 10:15:53;;;;;;;30.88;22.25;;;0.00;98.30;;;;;;5075868;23;20227;-81
2021/01/17 10:17:56;;;;;;;32.30;21.13;;;0.00;98.30;;;;;;5075483;23;20212;-81
2021/01/17 10:19:58;;;;;;;31.63;21.67;;;0.10;98.30;;;;;;5074957;23;20211;-81
2021/01/17 10:22:01;;;;;;;31.38;20.45;;;0.20;98.30;;;;;;5075001;23;20734;-81
2021/01/17 10:24:04;;;;;;;32.33;22.52;;;0.20;98.30;;;;;;5068722;23;20268;-81
2021/01/17 10:26:06;;;;;;;31.60;21.50;;;0.10;98.30;;;;;;5076953;23;20208;-82
2021/01/17 10:28:10;;;;;;;36.58;23.80;;;0.20;98.30;;;;;;5076525;23;20231;-81
2021/01/17 10:30:19;;;;;;;29.67;20.38;;;0.30;98.30;;;;;;5076628;23;20267;-81
2021/01/17 10:32:29;;;;;;;28.10;21.13;;;0.30;98.30;;;;;;5068730;23;20216;-82
2021/01/17 10:34:34;;;;;;;28.50;21.00;;;0.30;98.30;;;;;;5069259;23;20231;-82
2021/01/17 10:36:36;;;;;;;29.73;21.20;;;0.20;98.30;;;;;;5069387;23;20283;-81
2021/01/17 10:38:41;;;;;;;30.17;20.67;;;0.20;98.30;;;;;;5076131;23;20563;-81
2021/01/17 10:40:45;;;;;;;26.13;18.73;;;0.40;98.30;;;;;;5076725;23;20621;-81